createdAt,value
2022-11-30T00:00:07.362Z,39.80
2022-11-30T00:01:18.598Z,39.80
2022-11-30T00:02:23.641Z,39.80
2022-11-30T00:03:27.959Z,39.80
2022-11-30T00:04:31.848Z,39.80
2022-11-30T00:05:37.087Z,39.70
2022-11-30T00:06:49.688Z,39.80
2022-11-30T00:07:59.100Z,39.80
2022-11-30T00:09:04.499Z,39.90
2022-11-30T00:10:10.271Z,39.80
2022-11-30T00:12:43.263Z,39.80
2022-11-30T00:13:49.396Z,39.90
2022-11-30T00:14:52.675Z,39.80
2022-11-30T00:16:03.613Z,39.90
2022-11-30T00:17:11.707Z,39.80
2022-11-30T00:18:18.086Z,39.80
2022-11-30T00:19:24.824Z,39.80
2022-11-30T00:20:30.196Z,39.90
2022-11-30T00:21:35.468Z,39.90
2022-11-30T00:22:41.522Z,39.80
2022-11-30T00:23:47.755Z,39.80
2022-11-30T00:24:52.858Z,40.40
2022-11-30T00:25:56.421Z,39.90
2022-11-30T00:27:00.936Z,39.90
2022-11-30T00:28:04.378Z,39.90
2022-11-30T00:29:08.192Z,39.90
2022-11-30T00:31:34.253Z,39.90
2022-11-30T00:32:40.626Z,39.90
2022-11-30T00:33:46.610Z,39.80
2022-11-30T00:34:54.447Z,39.90
2022-11-30T00:36:05.238Z,39.90
2022-11-30T00:37:10.850Z,39.90
2022-11-30T00:38:14.559Z,39.90
2022-11-30T00:39:18.520Z,39.90
2022-11-30T00:40:28.555Z,39.90
2022-11-30T00:41:34.430Z,39.80
2022-11-30T00:42:39.648Z,39.80
2022-11-30T00:43:49.661Z,40.50
2022-11-30T00:44:56.714Z,39.80
2022-11-30T00:46:00.441Z,40.00
2022-11-30T00:47:05.179Z,39.90
2022-11-30T00:48:10.895Z,40.00
2022-11-30T00:49:15.319Z,40.00
2022-11-30T00:50:28.080Z,39.90
2022-11-30T00:51:32.588Z,40.00
2022-11-30T00:52:37.771Z,40.00
2022-11-30T00:53:42.943Z,39.90
2022-11-30T00:54:46.480Z,40.00
2022-11-30T00:55:51.701Z,40.00
2022-11-30T00:56:56.357Z,39.90
2022-11-30T00:58:03.020Z,40.00
2022-11-30T00:59:07.325Z,40.00
2022-11-30T01:00:10.420Z,40.00
2022-11-30T01:01:17.532Z,39.90
2022-11-30T01:02:22.318Z,40.00
2022-11-30T01:03:27.485Z,39.90
2022-11-30T01:04:32.362Z,40.00
2022-11-30T01:05:39.245Z,40.00
2022-11-30T01:06:43.036Z,40.00
2022-11-30T01:07:48.913Z,39.90
2022-11-30T01:08:51.842Z,39.90
2022-11-30T01:09:57.364Z,40.00
2022-11-30T01:11:24.232Z,40.00
2022-11-30T01:12:29.801Z,40.00
2022-11-30T01:14:49.591Z,40.00
2022-11-30T01:15:53.458Z,40.00
2022-11-30T01:16:59.322Z,40.00
2022-11-30T01:18:02.543Z,40.00
2022-11-30T01:19:07.902Z,40.10
2022-11-30T01:20:11.047Z,40.00
2022-11-30T01:21:18.799Z,40.00
2022-11-30T01:22:23.038Z,40.00
2022-11-30T01:23:32.431Z,40.00
2022-11-30T01:24:41.151Z,40.10
2022-11-30T01:25:54.407Z,40.00
2022-11-30T01:26:58.995Z,40.10
2022-11-30T01:28:04.726Z,40.10
2022-11-30T01:29:09.720Z,40.00
2022-11-30T01:30:14.300Z,40.00
2022-11-30T01:31:18.724Z,40.00
2022-11-30T01:32:23.275Z,40.10
2022-11-30T01:33:27.927Z,40.00
2022-11-30T01:34:32.900Z,40.00
2022-11-30T01:35:37.289Z,40.00
2022-11-30T01:36:44.279Z,40.10
2022-11-30T01:37:49.780Z,40.00
2022-11-30T01:40:15.161Z,40.00
2022-11-30T01:41:34.055Z,40.00
2022-11-30T01:42:38.487Z,40.10
2022-11-30T01:44:06.235Z,40.10
2022-11-30T01:45:13.374Z,40.10
2022-11-30T01:46:43.223Z,40.00
2022-11-30T01:47:57.528Z,40.10
2022-11-30T01:49:08.207Z,40.10
2022-11-30T01:50:24.187Z,40.00
2022-11-30T01:51:36.471Z,40.00
2022-11-30T01:52:44.423Z,40.70
2022-11-30T01:53:49.852Z,40.10
2022-11-30T01:55:09.685Z,40.10
2022-11-30T01:56:18.770Z,40.20
2022-11-30T01:57:37.845Z,40.10
2022-11-30T01:58:44.023Z,40.10
2022-11-30T01:59:51.799Z,40.10
2022-11-30T02:00:55.350Z,40.10
2022-11-30T02:01:59.628Z,40.70
2022-11-30T02:03:17.702Z,40.10
2022-11-30T02:04:33.262Z,40.10
2022-11-30T02:05:41.048Z,40.10
2022-11-30T02:07:02.434Z,40.10
2022-11-30T02:08:09.570Z,40.10
2022-11-30T02:09:17.649Z,40.10
2022-11-30T02:10:30.292Z,40.10
2022-11-30T02:11:36.021Z,40.10
2022-11-30T02:13:11.335Z,40.10
2022-11-30T02:15:03.026Z,40.10
2022-11-30T02:16:40.853Z,40.10
2022-11-30T02:18:14.542Z,40.10
2022-11-30T02:20:03.387Z,40.10
2022-11-30T02:21:33.264Z,40.10
2022-11-30T02:23:18.441Z,40.10
2022-11-30T02:24:33.464Z,40.10
2022-11-30T02:25:55.261Z,40.10
2022-11-30T02:27:31.696Z,40.20
2022-11-30T02:29:12.306Z,40.10
2022-11-30T02:30:21.634Z,40.10
2022-11-30T02:31:36.544Z,40.20
2022-11-30T02:33:26.191Z,40.10
2022-11-30T02:34:33.489Z,40.10
2022-11-30T02:35:42.090Z,40.20
2022-11-30T02:36:55.912Z,40.10
2022-11-30T02:38:12.705Z,40.10
2022-11-30T02:39:17.046Z,40.20
2022-11-30T02:40:23.351Z,40.20
2022-11-30T02:41:27.316Z,40.20
2022-11-30T02:42:33.099Z,40.80
2022-11-30T02:43:37.275Z,40.20
2022-11-30T02:44:49.082Z,40.20
2022-11-30T02:46:35.466Z,40.20
2022-11-30T02:47:56.133Z,40.20
2022-11-30T02:49:08.400Z,40.10
2022-11-30T02:50:37.202Z,40.20
2022-11-30T02:51:44.715Z,40.20
2022-11-30T02:53:06.810Z,40.10
2022-11-30T02:54:12.687Z,40.20
2022-11-30T02:55:20.742Z,40.20
2022-11-30T02:56:26.276Z,40.20
2022-11-30T02:57:50.763Z,40.30
2022-11-30T02:58:55.645Z,40.20
2022-11-30T03:00:02.207Z,40.20
2022-11-30T03:01:25.397Z,40.20
2022-11-30T03:03:10.497Z,40.20
2022-11-30T03:04:53.381Z,40.20
2022-11-30T03:05:57.733Z,40.20
2022-11-30T03:07:24.756Z,40.30
2022-11-30T03:08:30.883Z,40.30
2022-11-30T03:09:36.082Z,40.30
2022-11-30T03:10:40.601Z,40.30
2022-11-30T03:12:04.233Z,40.20
2022-11-30T03:13:10.595Z,40.20
2022-11-30T03:14:15.330Z,40.20
2022-11-30T03:15:24.572Z,40.20
2022-11-30T03:17:08.606Z,40.20
2022-11-30T03:18:18.329Z,40.20
2022-11-30T03:19:24.228Z,40.20
2022-11-30T03:21:07.614Z,40.20
2022-11-30T03:22:15.092Z,40.20
2022-11-30T03:23:41.385Z,40.20
2022-11-30T03:24:47.788Z,40.30
2022-11-30T03:25:59.323Z,40.30
2022-11-30T03:27:23.238Z,40.30
2022-11-30T03:30:08.172Z,40.30
2022-11-30T03:31:18.749Z,40.30
2022-11-30T03:32:24.714Z,40.30
2022-11-30T03:33:49.799Z,40.30
2022-11-30T03:35:38.457Z,40.30
2022-11-30T03:36:45.564Z,40.30
2022-11-30T03:38:11.403Z,40.30
2022-11-30T03:39:16.253Z,40.30
2022-11-30T03:40:21.683Z,40.30
2022-11-30T03:41:26.158Z,40.30
2022-11-30T03:42:31.195Z,40.30
2022-11-30T03:43:34.129Z,40.30
2022-11-30T03:44:39.970Z,40.30
2022-11-30T03:45:46.733Z,40.30
2022-11-30T03:46:50.959Z,40.30
2022-11-30T03:47:55.610Z,40.30
2022-11-30T03:50:26.357Z,40.30
2022-11-30T03:51:30.130Z,40.30
2022-11-30T03:52:32.526Z,40.30
2022-11-30T03:53:35.038Z,40.30
2022-11-30T03:54:37.621Z,40.30
2022-11-30T03:55:42.705Z,40.30
2022-11-30T03:56:45.184Z,40.30
2022-11-30T03:57:47.705Z,40.30
2022-11-30T03:58:50.634Z,40.30
2022-11-30T03:59:53.099Z,40.30
2022-11-30T04:01:07.999Z,40.30
2022-11-30T04:02:30.372Z,40.30
2022-11-30T04:03:33.815Z,40.30
2022-11-30T04:04:37.575Z,40.30
2022-11-30T04:05:40.098Z,40.30
2022-11-30T04:07:02.453Z,40.30
2022-11-30T04:08:05.118Z,40.30
2022-11-30T04:09:07.722Z,40.30
2022-11-30T04:10:11.785Z,40.90
2022-11-30T04:11:14.947Z,40.30
2022-11-30T04:12:17.390Z,40.30
2022-11-30T04:13:21.246Z,40.30
2022-11-30T04:14:23.682Z,40.30
2022-11-30T04:15:26.161Z,40.30
2022-11-30T04:16:28.641Z,40.30
2022-11-30T04:17:31.166Z,40.30
2022-11-30T04:18:36.127Z,40.30
2022-11-30T04:19:40.134Z,40.30
2022-11-30T04:20:43.220Z,40.40
2022-11-30T04:21:45.672Z,40.40
2022-11-30T04:22:49.227Z,40.40
2022-11-30T04:23:51.702Z,40.40
2022-11-30T04:25:14.457Z,40.30
2022-11-30T04:26:17.899Z,40.30
2022-11-30T04:27:20.326Z,40.40
2022-11-30T04:28:22.774Z,40.30
2022-11-30T04:29:25.258Z,40.30
2022-11-30T04:30:27.832Z,40.40
2022-11-30T04:31:30.262Z,40.40
2022-11-30T04:32:33.129Z,40.40
2022-11-30T04:33:36.052Z,40.40
2022-11-30T04:34:38.551Z,40.30
2022-11-30T04:35:48.323Z,40.30
2022-11-30T04:36:56.084Z,40.40
2022-11-30T04:38:02.539Z,40.40
2022-11-30T04:39:05.152Z,40.30
2022-11-30T04:40:08.279Z,40.40
2022-11-30T04:41:11.152Z,40.40
2022-11-30T04:42:13.675Z,40.40
2022-11-30T04:43:16.359Z,40.40
2022-11-30T04:44:18.771Z,40.30
2022-11-30T04:45:21.257Z,40.40
2022-11-30T04:46:26.026Z,40.30
2022-11-30T04:47:28.550Z,40.40
2022-11-30T04:48:31.033Z,40.30
2022-11-30T04:49:33.559Z,40.40
2022-11-30T04:50:36.291Z,40.30
2022-11-30T04:51:38.778Z,40.40
2022-11-30T04:52:41.289Z,40.40
2022-11-30T04:53:43.773Z,40.40
2022-11-30T04:54:46.395Z,40.40
2022-11-30T04:55:50.502Z,40.40
2022-11-30T04:56:52.973Z,40.40
2022-11-30T04:57:55.611Z,40.30
2022-11-30T04:58:58.125Z,40.40
2022-11-30T05:00:00.609Z,40.40
2022-11-30T05:01:03.254Z,40.40
2022-11-30T05:02:05.842Z,40.30
2022-11-30T05:04:24.743Z,40.40
2022-11-30T05:05:27.227Z,40.40
2022-11-30T05:06:29.630Z,40.40
2022-11-30T05:07:32.304Z,40.30
2022-11-30T05:08:34.794Z,40.40
2022-11-30T05:09:37.200Z,40.30
2022-11-30T05:10:39.714Z,40.40
2022-11-30T05:11:42.188Z,40.40
2022-11-30T05:12:45.111Z,40.40
2022-11-30T05:13:47.627Z,40.40
2022-11-30T05:14:50.139Z,40.40
2022-11-30T05:15:53.934Z,40.40
2022-11-30T05:16:56.637Z,40.40
2022-11-30T05:18:02.655Z,40.40
2022-11-30T05:19:05.127Z,40.40
2022-11-30T05:20:09.739Z,40.40
2022-11-30T05:21:12.260Z,40.40
2022-11-30T05:22:14.705Z,40.40
2022-11-30T05:23:18.055Z,40.40
2022-11-30T05:24:20.482Z,40.40
2022-11-30T05:25:23.072Z,40.50
2022-11-30T05:26:25.910Z,40.40
2022-11-30T05:27:28.707Z,40.40
2022-11-30T05:28:31.271Z,40.40
2022-11-30T05:29:35.204Z,40.50
2022-11-30T05:30:39.863Z,40.40
2022-11-30T05:31:42.330Z,40.40
2022-11-30T05:32:44.898Z,40.40
2022-11-30T05:33:51.231Z,40.50
2022-11-30T05:34:54.157Z,40.40
2022-11-30T05:35:57.050Z,40.50
2022-11-30T05:37:00.882Z,40.50
2022-11-30T05:38:04.184Z,40.50
2022-11-30T05:39:06.795Z,40.50
2022-11-30T05:40:11.022Z,40.50
2022-11-30T05:41:13.584Z,40.50
2022-11-30T05:42:16.249Z,40.60
2022-11-30T05:43:18.938Z,40.50
2022-11-30T05:44:21.378Z,40.60
2022-11-30T05:45:24.587Z,40.50
2022-11-30T05:46:27.053Z,40.50
2022-11-30T05:47:29.936Z,40.60
2022-11-30T05:48:32.885Z,40.50
2022-11-30T05:49:35.855Z,40.50
2022-11-30T05:50:39.557Z,40.60
2022-11-30T05:51:42.030Z,40.60
2022-11-30T05:52:44.884Z,40.60
2022-11-30T05:53:47.867Z,40.60
2022-11-30T05:54:50.459Z,40.60
2022-11-30T05:55:53.208Z,40.70
2022-11-30T05:56:57.085Z,40.60
2022-11-30T05:57:59.608Z,40.70
2022-11-30T05:59:02.090Z,40.70
2022-11-30T06:00:07.060Z,40.60
2022-11-30T06:01:22.295Z,40.60
2022-11-30T06:02:28.091Z,40.70
2022-11-30T06:03:32.762Z,40.70
2022-11-30T06:04:35.619Z,40.80
2022-11-30T06:05:38.414Z,40.70
2022-11-30T06:06:40.883Z,40.70
2022-11-30T06:07:43.477Z,40.70
2022-11-30T06:08:47.194Z,40.70
2022-11-30T06:09:49.706Z,40.70
2022-11-30T06:10:52.228Z,40.70
2022-11-30T06:11:54.674Z,40.70
2022-11-30T06:12:57.105Z,40.80
2022-11-30T06:13:59.582Z,40.80
2022-11-30T06:15:02.333Z,40.80
2022-11-30T06:16:06.107Z,40.80
2022-11-30T06:17:08.821Z,40.80
2022-11-30T06:18:14.508Z,40.90
2022-11-30T06:19:16.951Z,40.80
2022-11-30T06:20:19.574Z,40.80
2022-11-30T06:21:24.666Z,40.90
2022-11-30T06:22:27.452Z,40.90
2022-11-30T06:23:31.496Z,40.90
2022-11-30T06:24:34.035Z,40.80
2022-11-30T06:25:38.119Z,40.90
2022-11-30T06:26:40.590Z,40.80
2022-11-30T06:27:43.691Z,40.90
2022-11-30T06:28:48.403Z,40.90
2022-11-30T06:29:51.303Z,40.90
2022-11-30T06:30:58.018Z,40.90
2022-11-30T06:32:00.753Z,40.90
2022-11-30T06:33:03.629Z,40.90
2022-11-30T06:34:06.051Z,40.90
2022-11-30T06:35:08.789Z,40.90
2022-11-30T06:36:11.366Z,40.90
2022-11-30T06:37:15.046Z,41.00
2022-11-30T06:38:18.198Z,40.90
2022-11-30T06:39:42.916Z,41.00
2022-11-30T06:40:43.172Z,41.00
2022-11-30T06:41:48.870Z,41.00
2022-11-30T06:42:54.893Z,41.00
2022-11-30T06:43:57.370Z,41.00
2022-11-30T06:44:59.887Z,41.00
2022-11-30T06:46:04.650Z,41.00
2022-11-30T06:47:07.301Z,41.00
2022-11-30T06:48:10.042Z,41.00
2022-11-30T06:49:12.600Z,41.00
2022-11-30T06:50:15.214Z,41.00
2022-11-30T06:51:17.730Z,41.00
2022-11-30T06:52:20.149Z,41.00
2022-11-30T06:53:23.866Z,41.10
2022-11-30T06:54:26.264Z,41.00
2022-11-30T06:55:32.623Z,41.00
2022-11-30T06:56:35.140Z,41.00
2022-11-30T06:57:37.621Z,41.00
2022-11-30T06:58:41.327Z,41.00
2022-11-30T06:59:43.994Z,41.00
2022-11-30T07:00:46.773Z,41.10
2022-11-30T07:01:49.324Z,41.00
2022-11-30T07:02:51.821Z,41.10
2022-11-30T07:03:54.389Z,41.00
2022-11-30T07:04:56.892Z,41.00
2022-11-30T07:05:59.410Z,41.00
2022-11-30T07:07:01.848Z,41.00
2022-11-30T07:08:04.491Z,41.00
2022-11-30T07:09:07.023Z,41.00
2022-11-30T07:10:09.841Z,41.00
2022-11-30T07:11:15.529Z,41.00
2022-11-30T07:12:18.171Z,41.00
2022-11-30T07:13:20.773Z,41.00
2022-11-30T07:14:23.298Z,41.00
2022-11-30T07:15:25.870Z,41.00
2022-11-30T07:16:28.449Z,41.00
2022-11-30T07:17:31.078Z,41.00
2022-11-30T07:18:34.299Z,41.00
2022-11-30T07:19:37.814Z,41.00
2022-11-30T07:20:40.476Z,41.00
2022-11-30T07:21:42.883Z,41.00
2022-11-30T07:22:45.298Z,41.00
2022-11-30T07:24:06.431Z,41.00
2022-11-30T07:25:28.146Z,41.00
2022-11-30T07:26:30.839Z,41.00
2022-11-30T07:27:36.507Z,41.00
2022-11-30T07:28:41.016Z,41.00
2022-11-30T07:29:43.563Z,41.00
2022-11-30T07:30:46.127Z,41.00
2022-11-30T07:31:52.368Z,41.00
2022-11-30T07:32:54.842Z,41.00
2022-11-30T07:33:59.366Z,40.90
2022-11-30T07:35:01.812Z,41.00
2022-11-30T07:36:04.359Z,41.00
2022-11-30T07:37:07.156Z,41.00
2022-11-30T07:38:10.120Z,41.00
2022-11-30T07:39:13.369Z,41.00
2022-11-30T07:40:15.931Z,40.90
2022-11-30T07:41:18.719Z,40.90
2022-11-30T07:42:22.879Z,40.90
2022-11-30T07:43:25.387Z,40.90
2022-11-30T07:44:28.250Z,40.90
2022-11-30T07:45:31.610Z,40.90
2022-11-30T07:46:36.005Z,40.90
2022-11-30T07:47:38.521Z,40.90
2022-11-30T07:48:43.094Z,40.90
2022-11-30T07:49:45.579Z,40.90
2022-11-30T07:50:49.057Z,40.90
2022-11-30T07:51:51.861Z,40.90
2022-11-30T07:52:54.272Z,40.90
2022-11-30T07:53:58.766Z,40.90
2022-11-30T07:55:01.238Z,40.90
2022-11-30T07:56:09.670Z,40.90
2022-11-30T07:57:12.494Z,40.90
2022-11-30T07:58:17.422Z,40.90
2022-11-30T07:59:20.199Z,40.90
2022-11-30T08:00:22.682Z,40.80
2022-11-30T08:01:27.755Z,40.80
2022-11-30T08:02:30.374Z,40.90
2022-11-30T08:03:36.876Z,40.90
2022-11-30T08:04:39.818Z,41.00
2022-11-30T08:05:42.270Z,40.80
2022-11-30T08:06:44.701Z,40.80
2022-11-30T08:07:52.501Z,40.80
2022-11-30T08:08:58.343Z,40.80
2022-11-30T08:10:00.811Z,40.80
2022-11-30T08:11:05.102Z,40.80
2022-11-30T08:12:07.929Z,40.80
2022-11-30T08:13:10.770Z,40.80
2022-11-30T08:14:13.758Z,40.80
2022-11-30T08:15:20.310Z,40.80
2022-11-30T08:16:26.718Z,40.80
2022-11-30T08:17:29.366Z,40.80
2022-11-30T08:18:31.886Z,40.80
2022-11-30T08:19:34.452Z,40.80
2022-11-30T08:20:37.016Z,40.80
2022-11-30T08:21:39.630Z,40.80
2022-11-30T08:22:42.232Z,40.80
2022-11-30T08:23:47.527Z,40.80
2022-11-30T08:24:50.287Z,40.70
2022-11-30T08:25:52.861Z,40.80
2022-11-30T08:26:55.307Z,40.70
2022-11-30T08:27:58.162Z,40.80
2022-11-30T08:29:02.122Z,40.70
2022-11-30T08:30:05.622Z,40.80
2022-11-30T08:31:11.560Z,40.80
2022-11-30T08:32:14.573Z,40.70
2022-11-30T08:33:17.101Z,40.70
2022-11-30T08:34:20.761Z,40.70
2022-11-30T08:35:23.677Z,40.70
2022-11-30T08:36:27.463Z,40.70
2022-11-30T08:37:30.296Z,40.70
2022-11-30T08:38:32.951Z,40.60
2022-11-30T08:39:36.562Z,40.70
2022-11-30T08:40:39.041Z,40.70
2022-11-30T08:41:42.513Z,40.70
2022-11-30T08:42:45.061Z,40.70
2022-11-30T08:43:49.018Z,40.70
2022-11-30T08:44:51.791Z,40.70
2022-11-30T08:45:57.356Z,40.70
2022-11-30T08:47:01.343Z,40.70
2022-11-30T08:48:04.166Z,40.80
2022-11-30T08:49:20.843Z,40.70
2022-11-30T08:50:24.508Z,40.70
2022-11-30T08:51:26.920Z,40.60
2022-11-30T08:52:29.758Z,40.70
2022-11-30T08:53:34.236Z,40.60
2022-11-30T08:54:39.165Z,40.60
2022-11-30T08:55:41.727Z,40.70
2022-11-30T08:56:44.205Z,40.70
2022-11-30T08:57:46.655Z,40.60
2022-11-30T08:58:50.693Z,40.70
2022-11-30T08:59:53.176Z,40.60
2022-11-30T09:00:55.806Z,40.70
2022-11-30T09:01:58.263Z,40.60
2022-11-30T09:03:00.891Z,40.60
2022-11-30T09:04:03.387Z,40.60
2022-11-30T09:05:06.559Z,40.60
2022-11-30T09:06:14.979Z,40.60
2022-11-30T09:07:19.644Z,40.70
2022-11-30T09:08:22.210Z,40.60
2022-11-30T09:09:25.857Z,40.60
2022-11-30T09:10:28.346Z,41.20
2022-11-30T09:11:34.113Z,40.60
2022-11-30T09:12:39.554Z,40.60
2022-11-30T09:13:43.778Z,40.60
2022-11-30T09:14:53.860Z,40.60
2022-11-30T09:15:58.462Z,40.60
2022-11-30T09:17:01.300Z,40.60
2022-11-30T09:18:07.067Z,40.60
2022-11-30T09:19:10.551Z,40.60
2022-11-30T09:20:13.288Z,40.60
2022-11-30T09:21:21.556Z,40.60
2022-11-30T09:22:24.578Z,41.20
2022-11-30T09:23:27.915Z,41.20
2022-11-30T09:24:30.506Z,40.60
2022-11-30T09:25:32.916Z,40.60
2022-11-30T09:26:35.315Z,40.50
2022-11-30T09:27:38.529Z,40.50
2022-11-30T09:28:41.622Z,40.50
2022-11-30T09:29:48.211Z,40.50
2022-11-30T09:30:58.588Z,40.40
2022-11-30T09:32:03.369Z,40.70
2022-11-30T09:33:08.017Z,40.90
2022-11-30T09:34:26.603Z,41.80
2022-11-30T09:35:28.967Z,41.30
2022-11-30T09:36:33.020Z,41.80
2022-11-30T09:37:37.072Z,41.90
2022-11-30T09:38:44.728Z,41.80
2022-11-30T09:39:47.214Z,41.70
2022-11-30T09:40:56.275Z,41.60
2022-11-30T09:42:25.241Z,41.60
2022-11-30T09:43:50.295Z,41.50
2022-11-30T09:45:01.317Z,41.50
2022-11-30T09:46:08.708Z,41.50
2022-11-30T09:47:31.867Z,41.50
2022-11-30T09:48:49.219Z,41.30
2022-11-30T09:49:51.895Z,41.30
2022-11-30T09:50:57.118Z,41.20
2022-11-30T09:52:04.539Z,41.20
2022-11-30T09:53:31.224Z,41.10
2022-11-30T09:54:43.305Z,41.00
2022-11-30T09:55:46.829Z,40.90
2022-11-30T09:56:51.187Z,40.90
2022-11-30T09:57:58.520Z,40.90
2022-11-30T09:59:26.242Z,40.80
2022-11-30T10:00:31.207Z,40.70
2022-11-30T10:01:37.632Z,40.70
2022-11-30T10:02:41.702Z,40.70
2022-11-30T10:03:45.017Z,40.60
2022-11-30T10:04:48.227Z,40.70
2022-11-30T10:06:05.798Z,40.70
2022-11-30T10:07:35.893Z,40.70
2022-11-30T10:08:55.464Z,40.70
2022-11-30T10:11:45.244Z,40.70
2022-11-30T10:13:01.205Z,40.70
2022-11-30T10:14:25.237Z,40.70
2022-11-30T10:15:41.665Z,40.70
2022-11-30T10:17:09.246Z,40.70
2022-11-30T10:18:38.857Z,40.70
2022-11-30T10:19:56.858Z,40.70
2022-11-30T10:21:27.018Z,40.60
2022-11-30T10:22:41.032Z,40.60
2022-11-30T10:24:17.543Z,40.60
2022-11-30T10:26:08.035Z,40.70
2022-11-30T10:27:18.688Z,40.60
2022-11-30T10:29:50.942Z,40.60
2022-11-30T10:30:54.001Z,40.60
2022-11-30T10:32:00.480Z,40.60
2022-11-30T10:33:26.836Z,40.60
2022-11-30T10:34:34.931Z,40.60
2022-11-30T10:36:00.538Z,40.50
2022-11-30T10:37:22.571Z,40.50
2022-11-30T10:38:36.999Z,40.50
2022-11-30T10:39:57.161Z,40.50
2022-11-30T10:41:13.746Z,40.40
2022-11-30T10:42:30.722Z,40.50
2022-11-30T10:44:07.127Z,40.40
2022-11-30T10:45:14.744Z,40.40
2022-11-30T10:46:35.640Z,40.40
2022-11-30T10:47:50.162Z,40.40
2022-11-30T10:48:58.734Z,40.30
2022-11-30T10:50:01.348Z,40.40
2022-11-30T10:51:04.712Z,40.40
2022-11-30T10:52:09.145Z,40.40
2022-11-30T10:53:12.938Z,40.30
2022-11-30T10:54:19.695Z,40.30
2022-11-30T10:55:26.463Z,40.30
2022-11-30T10:56:30.029Z,40.20
2022-11-30T10:57:33.302Z,40.30
2022-11-30T10:58:43.322Z,40.30
2022-11-30T10:59:50.670Z,40.20
2022-11-30T11:01:09.931Z,40.20
2022-11-30T11:02:37.593Z,40.30
2022-11-30T11:03:40.104Z,40.20
2022-11-30T11:04:42.639Z,40.20
2022-11-30T11:05:46.338Z,40.20
2022-11-30T11:06:59.512Z,40.20
2022-11-30T11:08:17.057Z,40.10
2022-11-30T11:09:42.318Z,40.10
2022-11-30T11:10:47.934Z,40.10
2022-11-30T11:12:01.348Z,40.10
2022-11-30T11:13:05.347Z,40.10
2022-11-30T11:14:16.921Z,40.10
2022-11-30T11:15:21.990Z,40.00
2022-11-30T11:16:24.522Z,40.10
2022-11-30T11:17:28.630Z,40.00
2022-11-30T11:18:33.071Z,40.10
2022-11-30T11:19:43.674Z,40.00
2022-11-30T11:20:46.160Z,40.00
2022-11-30T11:21:50.653Z,40.00
2022-11-30T11:22:53.467Z,40.60
2022-11-30T11:23:57.736Z,40.00
2022-11-30T11:25:21.522Z,40.00
2022-11-30T11:26:29.035Z,40.00
2022-11-30T11:27:33.317Z,40.00
2022-11-30T11:28:37.837Z,40.00
2022-11-30T11:29:40.753Z,40.00
2022-11-30T11:30:43.423Z,39.90
2022-11-30T11:31:49.115Z,40.00
2022-11-30T11:33:03.221Z,39.90
2022-11-30T11:34:22.882Z,40.00
2022-11-30T11:35:36.566Z,40.00
2022-11-30T11:36:39.093Z,39.90
2022-11-30T11:37:51.223Z,39.90
2022-11-30T11:38:53.808Z,39.90
2022-11-30T11:40:00.768Z,39.90
2022-11-30T11:41:07.249Z,39.90
2022-11-30T11:42:22.392Z,39.90
2022-11-30T11:43:30.097Z,39.90
2022-11-30T11:44:33.705Z,40.50
2022-11-30T11:45:38.279Z,39.90
2022-11-30T11:47:06.403Z,39.80
2022-11-30T11:48:32.800Z,39.80
2022-11-30T11:49:37.049Z,39.80
2022-11-30T11:52:05.554Z,39.80
2022-11-30T11:53:23.455Z,39.70
2022-11-30T11:54:33.935Z,39.70
2022-11-30T11:55:37.428Z,39.70
2022-11-30T11:56:40.332Z,39.80
2022-11-30T11:57:54.558Z,39.70
2022-11-30T11:59:23.008Z,39.80
2022-11-30T12:00:28.748Z,39.70
2022-11-30T12:01:48.518Z,39.70
2022-11-30T12:03:18.180Z,39.70
2022-11-30T12:04:45.150Z,39.70
2022-11-30T12:06:17.353Z,39.70
2022-11-30T12:07:31.792Z,39.60
2022-11-30T12:09:13.801Z,39.60
2022-11-30T12:10:51.123Z,39.60
2022-11-30T12:11:50.412Z,39.60
2022-11-30T12:12:55.525Z,39.70
2022-11-30T12:13:58.421Z,39.60
2022-11-30T12:15:03.429Z,39.60
2022-11-30T12:16:21.168Z,39.60
2022-11-30T12:17:23.544Z,40.10
2022-11-30T12:18:51.543Z,39.60
2022-11-30T12:20:15.078Z,39.50
2022-11-30T12:21:37.178Z,39.50
2022-11-30T12:22:58.191Z,39.50
2022-11-30T12:24:28.278Z,39.50
2022-11-30T12:25:36.244Z,39.50
2022-11-30T12:26:48.647Z,39.50
2022-11-30T12:28:17.160Z,39.40
2022-11-30T12:29:24.235Z,39.50
2022-11-30T12:30:40.355Z,39.40
2022-11-30T12:32:28.512Z,39.50
2022-11-30T12:34:03.758Z,39.40
2022-11-30T12:35:47.616Z,39.40
2022-11-30T12:37:08.583Z,39.30
2022-11-30T12:38:39.986Z,39.40
2022-11-30T12:40:04.731Z,39.40
2022-11-30T12:41:22.939Z,39.40
2022-11-30T12:42:43.553Z,39.40
2022-11-30T12:44:15.744Z,39.30
2022-11-30T12:45:25.957Z,39.30
2022-11-30T12:46:53.883Z,39.30
2022-11-30T12:48:06.680Z,39.30
2022-11-30T12:49:47.455Z,39.30
2022-11-30T12:51:11.315Z,39.30
2022-11-30T12:52:39.838Z,39.30
2022-11-30T12:54:04.205Z,39.30
2022-11-30T12:55:24.995Z,39.30
2022-11-30T12:56:27.466Z,39.30
2022-11-30T12:58:07.066Z,39.20
2022-11-30T12:59:55.566Z,39.20
2022-11-30T13:01:07.144Z,39.20
2022-11-30T13:02:31.065Z,39.20
2022-11-30T13:03:53.378Z,39.20
2022-11-30T13:05:04.281Z,39.20
2022-11-30T13:06:17.209Z,39.10
2022-11-30T13:07:41.738Z,39.10
2022-11-30T13:08:49.605Z,39.10
2022-11-30T13:09:55.053Z,39.10
2022-11-30T13:11:06.357Z,39.10
2022-11-30T13:12:20.102Z,39.10
2022-11-30T13:13:36.170Z,39.00
2022-11-30T13:14:39.557Z,39.10
2022-11-30T13:15:43.277Z,39.10
2022-11-30T13:16:47.139Z,39.10
2022-11-30T13:17:51.366Z,39.00
2022-11-30T13:19:01.836Z,39.10
2022-11-30T13:20:40.109Z,39.00
2022-11-30T13:21:53.848Z,39.00
2022-11-30T13:23:10.582Z,39.00
2022-11-30T13:24:24.670Z,39.00
2022-11-30T13:26:07.307Z,39.00
2022-11-30T13:27:23.319Z,39.00
2022-11-30T13:28:41.188Z,39.00
2022-11-30T13:29:55.581Z,38.90
2022-11-30T13:31:16.027Z,39.00
2022-11-30T13:32:55.148Z,39.00
2022-11-30T13:33:49.334Z,38.90
2022-11-30T13:34:51.851Z,38.90
2022-11-30T13:35:54.858Z,38.90
2022-11-30T13:37:27.323Z,38.90
2022-11-30T13:38:38.829Z,38.80
2022-11-30T13:39:58.382Z,38.90
2022-11-30T13:41:05.676Z,38.80
2022-11-30T13:42:39.343Z,38.80
2022-11-30T13:43:48.324Z,38.80
2022-11-30T13:44:51.326Z,38.80
2022-11-30T13:46:11.976Z,38.80
2022-11-30T13:47:31.157Z,38.70
2022-11-30T13:48:38.811Z,38.80
2022-11-30T13:49:42.663Z,38.80
2022-11-30T13:50:48.564Z,38.70
2022-11-30T13:52:13.606Z,38.70
2022-11-30T13:53:27.760Z,38.70
2022-11-30T13:54:39.283Z,38.60
2022-11-30T13:55:45.127Z,38.60
2022-11-30T13:56:48.877Z,38.60
2022-11-30T13:57:51.561Z,38.60
2022-11-30T13:59:23.382Z,38.60
2022-11-30T14:00:31.986Z,38.60
2022-11-30T14:01:34.567Z,38.60
2022-11-30T14:02:42.029Z,39.20
2022-11-30T14:03:48.008Z,38.60
2022-11-30T14:05:14.104Z,38.60
2022-11-30T14:06:39.780Z,38.60
2022-11-30T14:08:04.913Z,38.60
2022-11-30T14:09:42.868Z,38.50
2022-11-30T14:10:51.778Z,38.50
2022-11-30T14:11:57.245Z,38.50
2022-11-30T14:13:02.120Z,38.50
2022-11-30T14:14:46.058Z,38.60
2022-11-30T14:15:52.949Z,38.50
2022-11-30T14:16:58.136Z,38.50
2022-11-30T14:18:14.023Z,38.50
2022-11-30T14:19:17.297Z,38.50
2022-11-30T14:20:37.603Z,38.50
2022-11-30T14:21:44.681Z,38.50
2022-11-30T14:22:48.183Z,38.50
2022-11-30T14:24:01.198Z,38.50
2022-11-30T14:25:04.556Z,38.40
2022-11-30T14:26:16.159Z,38.40
2022-11-30T14:27:25.663Z,38.40
2022-11-30T14:28:38.759Z,38.40
2022-11-30T14:29:41.417Z,38.40
2022-11-30T14:30:45.379Z,38.40
2022-11-30T14:31:47.865Z,38.40
2022-11-30T14:32:58.418Z,38.50
2022-11-30T14:34:02.990Z,38.40
2022-11-30T14:35:16.089Z,38.40
2022-11-30T14:36:20.439Z,38.40
2022-11-30T14:37:31.892Z,38.40
2022-11-30T14:38:41.128Z,38.40
2022-11-30T14:39:45.807Z,39.00
2022-11-30T14:40:53.504Z,38.40
2022-11-30T14:41:57.605Z,38.30
2022-11-30T14:43:02.386Z,38.30
2022-11-30T14:44:11.597Z,38.30
2022-11-30T14:45:34.963Z,38.30
2022-11-30T14:46:37.598Z,38.40
2022-11-30T14:47:45.198Z,38.30
2022-11-30T14:49:12.450Z,38.30
2022-11-30T14:50:23.240Z,38.30
2022-11-30T14:51:25.718Z,38.30
2022-11-30T14:53:07.203Z,38.20
2022-11-30T14:54:33.290Z,38.30
2022-11-30T14:55:51.752Z,38.30
2022-11-30T14:57:02.747Z,38.30
2022-11-30T14:58:42.436Z,38.30
2022-11-30T14:59:55.847Z,38.20
2022-11-30T15:01:00.738Z,38.30
2022-11-30T15:02:11.949Z,38.20
2022-11-30T15:03:37.456Z,38.20
2022-11-30T15:04:42.898Z,38.20
2022-11-30T15:05:45.529Z,38.20